Time;durP1;ratioP1;P1;durP2;ratioP2;P2;SDS_P1;SDS_P2;PMS_P1;PMS_P2;Temp;Humidity;BMP_temperature;BMP_pressure;BME280_temperature;BME280_humidity;BME280_pressure;Samples;Min_cycle;Max_cycle;Signal;HPM_P1;HPM_P2
2023/05/11 00:00:02;;;;;;;;;2.67;1.00;;;;;;;;5056129;28;45484;-80
2023/05/11 00:02:27;;;;;;;;;0.00;0.00;;;;;;;;5056059;28;46179;-79
2023/05/11 00:04:53;;;;;;;;;1.00;0.67;;;;;;;;5038028;28;45647;-79
2023/05/11 00:07:18;;;;;;;;;1.00;1.00;;;;;;;;5055647;28;45395;-80
2023/05/11 00:09:43;;;;;;;;;1.00;1.00;;;;;;;;5056140;28;45443;-79
2023/05/11 00:12:08;;;;;;;;;0.00;0.00;;;;;;;;5055826;28;45606;-79
2023/05/11 00:14:33;;;;;;;;;1.00;1.00;;;;;;;;5055441;28;45368;-80
2023/05/11 00:16:58;;;;;;;;;1.67;1.00;;;;;;;;5056202;28;45439;-80
2023/05/11 00:19:24;;;;;;;;;1.00;1.00;;;;;;;;5056159;28;45449;-79
2023/05/11 00:21:49;;;;;;;;;1.00;1.00;;;;;;;;5055230;28;46364;-79
2023/05/11 00:24:14;;;;;;;;;4.00;1.00;;;;;;;;5055917;28;45425;-79
2023/05/11 00:26:39;;;;;;;;;0.00;0.00;;;;;;;;5055798;28;45562;-80
2023/05/11 00:29:05;;;;;;;;;1.67;0.33;;;;;;;;5055782;28;45343;-80
2023/05/11 00:31:30;;;;;;;;;1.50;0.50;;;;;;;;5055712;28;46414;-79
2023/05/11 00:33:55;;;;;;;;;2.00;1.00;;;;;;;;5055786;28;45528;-79
2023/05/11 00:36:20;;;;;;;;;0.00;0.00;;;;;;;;5055768;28;45396;-80
2023/05/11 00:38:45;;;;;;;;;0.00;0.00;;;;;;;;5037891;28;45506;-79
2023/05/11 00:41:11;;;;;;;;;0.00;0.00;;;;;;;;5055500;28;46308;-79
2023/05/11 00:43:36;;;;;;;;;2.75;1.00;;;;;;;;5037430;28;45431;-78
2023/05/11 00:46:02;;;;;;;;;2.00;2.00;;;;;;;;5055661;28;45435;-79
2023/05/11 00:48:27;;;;;;;;;1.00;1.00;;;;;;;;5055740;28;45457;-80
2023/05/11 00:50:52;;;;;;;;;2.67;1.00;;;;;;;;5055359;28;45408;-80
2023/05/11 00:53:18;;;;;;;;;2.00;0.00;;;;;;;;5055531;28;45396;-79
2023/05/11 00:55:43;;;;;;;;;1.00;1.00;;;;;;;;5037292;28;45305;-79
2023/05/11 00:58:08;;;;;;;;;1.00;0.00;;;;;;;;5055476;28;45464;-79
2023/05/11 01:00:33;;;;;;;;;3.33;0.00;;;;;;;;5055248;28;47102;-79
2023/05/11 01:03:00;;;;;;;;;0.00;0.00;;;;;;;;5055458;28;45454;-80
2023/05/11 01:05:29;;;;;;;;;0.75;0.75;;;;;;;;5055165;28;45452;-80
2023/05/11 01:07:55;;;;;;;;;0.50;0.00;;;;;;;;5055133;28;45254;-80
2023/05/11 01:10:28;;;;;;;;;1.00;0.33;;;;;;;;5054994;28;46614;-79
2023/05/11 01:13:02;;;;;;;;;2.00;1.00;;;;;;;;5054852;28;45676;-79
2023/05/11 01:15:55;;;;;;;;;2.00;0.25;;;;;;;;5055429;28;45270;-80
2023/05/11 01:18:23;;;;;;;;;0.50;0.00;;;;;;;;5051691;28;45452;-80
2023/05/11 01:20:51;;;;;;;;;1.75;1.00;;;;;;;;5054648;28;46550;-79
2023/05/11 01:23:39;;;;;;;;;0.50;0.00;;;;;;;;5036978;28;46017;-79
2023/05/11 01:26:10;;;;;;;;;0.00;0.00;;;;;;;;4973508;28;45436;-80
2023/05/11 01:28:44;;;;;;;;;2.00;1.00;;;;;;;;4976639;28;45496;-79
2023/05/11 01:31:10;;;;;;;;;0.00;0.00;;;;;;;;4976405;28;48311;-79
2023/05/11 01:33:42;;;;;;;;;0.50;0.50;;;;;;;;4976559;28;45490;-79
2023/05/11 01:36:09;;;;;;;;;2.50;0.00;;;;;;;;4976808;28;45652;-79
2023/05/11 01:38:38;;;;;;;;;0.75;0.00;;;;;;;;4976740;28;45564;-80
2023/05/11 01:41:07;;;;;;;;;1.25;1.00;;;;;;;;4976571;28;45398;-79
2023/05/11 01:43:34;;;;;;;;;0.00;0.00;;;;;;;;4976499;28;45713;-80
2023/05/11 01:46:00;;;;;;;;;0.25;0.25;;;;;;;;4976456;28;45418;-79
2023/05/11 01:48:27;;;;;;;;;1.00;0.00;;;;;;;;4976367;28;45421;-79
2023/05/11 01:50:55;;;;;;;;;0.00;0.00;;;;;;;;4976305;28;46343;-79
2023/05/11 01:53:21;;;;;;;;;0.00;0.00;;;;;;;;4959948;28;45300;-79
2023/05/11 01:55:47;;;;;;;;;0.00;0.00;;;;;;;;4976395;28;45359;-79
2023/05/11 01:58:15;;;;;;;;;1.00;0.00;;;;;;;;4976467;28;45319;-79
2023/05/11 02:00:42;;;;;;;;;0.00;0.00;;;;;;;;4975967;28;45650;-79
2023/05/11 02:03:08;;;;;;;;;0.00;0.00;;;;;;;;5017982;28;45426;-79
2023/05/11 02:05:33;;;;;;;;;2.00;0.50;;;;;;;;5058149;28;45326;-79
2023/05/11 02:08:00;;;;;;;;;0.00;0.00;;;;;;;;5058042;28;45536;-79
2023/05/11 02:10:26;;;;;;;;;1.00;0.75;;;;;;;;5057850;28;46626;-79
2023/05/11 02:12:52;;;;;;;;;3.75;0.00;;;;;;;;5058002;28;45399;-79
2023/05/11 02:15:18;;;;;;;;;0.00;0.00;;;;;;;;5058164;28;45420;-79
2023/05/11 02:17:44;;;;;;;;;0.00;0.00;;;;;;;;5057685;28;45404;-79
2023/05/11 02:20:10;;;;;;;;;0.00;0.00;;;;;;;;5058005;28;46545;-79
2023/05/11 02:22:36;;;;;;;;;0.25;0.25;;;;;;;;5057840;28;45395;-79
2023/05/11 02:25:02;;;;;;;;;2.25;0.00;;;;;;;;5057862;28;45348;-79
2023/05/11 02:27:27;;;;;;;;;1.25;1.00;;;;;;;;5057749;28;45469;-79
2023/05/11 02:29:52;;;;;;;;;1.67;0.00;;;;;;;;5057738;28;46137;-79
2023/05/11 02:32:20;;;;;;;;;3.00;1.00;;;;;;;;5057564;28;45412;-79
2023/05/11 02:34:48;;;;;;;;;2.00;0.00;;;;;;;;5057985;28;45360;-79
2023/05/11 02:37:17;;;;;;;;;2.00;1.00;;;;;;;;5057845;28;45411;-79
2023/05/11 02:39:43;;;;;;;;;1.25;0.00;;;;;;;;5057335;28;45523;-79
2023/05/11 02:42:12;;;;;;;;;0.25;0.00;;;;;;;;5057729;28;45459;-79
2023/05/11 02:44:38;;;;;;;;;0.25;0.25;;;;;;;;5057240;28;45404;-79
2023/05/11 02:47:05;;;;;;;;;0.00;0.00;;;;;;;;5056497;28;45590;-79
2023/05/11 02:49:31;;;;;;;;;0.00;0.00;;;;;;;;5057505;28;46234;-80
2023/05/11 02:51:56;;;;;;;;;0.00;0.00;;;;;;;;5056851;28;45562;-79
2023/05/11 02:54:22;;;;;;;;;0.00;0.00;;;;;;;;5057436;28;45404;-80
2023/05/11 02:56:48;;;;;;;;;0.00;0.00;;;;;;;;5039264;28;45529;-80
2023/05/11 02:59:14;;;;;;;;;0.75;0.00;;;;;;;;5056677;28;47013;-80
2023/05/11 03:01:39;;;;;;;;;0.00;0.00;;;;;;;;5056459;28;45298;-80
2023/05/11 03:04:04;;;;;;;;;0.00;0.00;;;;;;;;5038899;28;45388;-79
2023/05/11 03:06:30;;;;;;;;;0.00;0.00;;;;;;;;5057192;28;45270;-79
2023/05/11 03:08:55;;;;;;;;;1.00;0.00;;;;;;;;5038848;28;47535;-80
2023/05/11 03:11:21;;;;;;;;;0.00;0.00;;;;;;;;5057024;28;45412;-79
2023/05/11 03:13:46;;;;;;;;;0.00;0.00;;;;;;;;5038690;28;45191;-80
2023/05/11 03:16:11;;;;;;;;;0.75;0.00;;;;;;;;5036594;28;45536;-79
2023/05/11 03:18:37;;;;;;;;;1.00;0.00;;;;;;;;5018717;28;48293;-79
2023/05/11 03:21:04;;;;;;;;;0.50;0.25;;;;;;;;5036937;28;45314;-79
2023/05/11 03:23:29;;;;;;;;;0.00;0.00;;;;;;;;5036830;28;45358;-79
2023/05/11 03:25:55;;;;;;;;;0.00;0.00;;;;;;;;5036735;28;45348;-79
2023/05/11 03:28:21;;;;;;;;;0.50;0.50;;;;;;;;5036491;28;45394;-80
2023/05/11 03:30:47;;;;;;;;;0.00;0.00;;;;;;;;5036097;28;45768;-79
2023/05/11 03:33:12;;;;;;;;;1.00;0.00;;;;;;;;5036674;28;45425;-80
2023/05/11 03:35:40;;;;;;;;;1.00;0.00;;;;;;;;5052225;28;45467;-81
2023/05/11 03:38:06;;;;;;;;;0.00;0.00;;;;;;;;5036146;28;47129;-80
2023/05/11 03:40:33;;;;;;;;;2.00;0.00;;;;;;;;5036453;28;45586;-79
2023/05/11 03:43:01;;;;;;;;;0.00;0.00;;;;;;;;5036290;28;45369;-78
2023/05/11 03:45:27;;;;;;;;;0.00;0.00;;;;;;;;5036015;28;45381;-79
2023/05/11 03:47:54;;;;;;;;;1.00;0.00;;;;;;;;5036424;28;45519;-79
2023/05/11 03:50:20;;;;;;;;;0.00;0.00;;;;;;;;5035604;28;45286;-80
2023/05/11 03:52:46;;;;;;;;;1.67;0.00;;;;;;;;5036594;28;45313;-79
2023/05/11 03:55:11;;;;;;;;;0.00;0.00;;;;;;;;5035944;28;45435;-80
2023/05/11 03:57:37;;;;;;;;;1.00;1.00;;;;;;;;5035469;28;45415;-79
2023/05/11 04:00:02;;;;;;;;;1.00;0.00;;;;;;;;5035870;28;45325;-80
2023/05/11 04:02:27;;;;;;;;;0.25;0.25;;;;;;;;5018166;28;45751;-80
2023/05/11 04:04:53;;;;;;;;;2.67;0.33;;;;;;;;5036193;28;45508;-78
2023/05/11 04:07:18;;;;;;;;;4.00;0.00;;;;;;;;5035647;28;45339;-79
2023/05/11 04:09:43;;;;;;;;;0.00;0.00;;;;;;;;5036014;28;45384;-79
2023/05/11 04:12:09;;;;;;;;;0.00;0.00;;;;;;;;5041061;28;45295;-79
2023/05/11 04:14:34;;;;;;;;;0.33;0.00;;;;;;;;5055781;28;45503;-79
2023/05/11 04:17:00;;;;;;;;;0.00;0.00;;;;;;;;5055887;28;47235;-79
2023/05/11 04:19:25;;;;;;;;;1.50;0.00;;;;;;;;5055538;28;45420;-78
2023/05/11 04:21:50;;;;;;;;;1.00;1.00;;;;;;;;5056241;28;45298;-78
2023/05/11 04:24:15;;;;;;;;;1.67;1.00;;;;;;;;5056190;28;45376;-80
2023/05/11 04:26:40;;;;;;;;;1.00;0.00;;;;;;;;5055793;28;45589;-79
2023/05/11 04:29:06;;;;;;;;;0.00;0.00;;;;;;;;5055645;28;45403;-79
2023/05/11 04:31:31;;;;;;;;;1.00;1.00;;;;;;;;5055972;28;45497;-78
2023/05/11 04:33:56;;;;;;;;;0.00;0.00;;;;;;;;5055860;28;45315;-79
2023/05/11 04:36:21;;;;;;;;;1.00;0.00;;;;;;;;5055772;28;45588;-79
2023/05/11 04:38:46;;;;;;;;;0.00;0.00;;;;;;;;5055892;28;45303;-79
2023/05/11 04:41:13;;;;;;;;;0.75;0.00;;;;;;;;5055592;28;45458;-79
2023/05/11 04:43:38;;;;;;;;;0.75;0.00;;;;;;;;5055149;28;45664;-80
2023/05/11 04:46:04;;;;;;;;;0.75;0.00;;;;;;;;5055516;28;46112;-79
2023/05/11 04:48:29;;;;;;;;;0.00;0.00;;;;;;;;5055470;28;45270;-79
2023/05/11 04:50:54;;;;;;;;;0.67;0.67;;;;;;;;5055732;28;45320;-79
2023/05/11 04:53:19;;;;;;;;;1.00;0.00;;;;;;;;5055493;28;45583;-78
2023/05/11 04:55:45;;;;;;;;;0.00;0.00;;;;;;;;5055483;28;45985;-79
2023/05/11 04:58:10;;;;;;;;;0.00;0.00;;;;;;;;5054935;28;45483;-80
2023/05/11 05:00:36;;;;;;;;;0.75;0.00;;;;;;;;5055833;28;45499;-79
2023/05/11 05:03:01;;;;;;;;;0.00;0.00;;;;;;;;5059340;28;45342;-79
2023/05/11 05:05:26;;;;;;;;;0.00;0.00;;;;;;;;5058706;28;46151;-78
2023/05/11 05:07:51;;;;;;;;;0.00;0.00;;;;;;;;5058870;28;45282;-79
2023/05/11 05:10:17;;;;;;;;;2.00;2.00;;;;;;;;5059499;28;45360;-79
2023/05/11 05:12:42;;;;;;;;;2.00;1.00;;;;;;;;5058474;28;45389;-78
2023/05/11 05:15:07;;;;;;;;;4.00;0.00;;;;;;;;5058878;28;45580;-81
2023/05/11 05:17:33;;;;;;;;;0.00;0.00;;;;;;;;5058992;28;45360;-88
2023/05/11 05:19:58;;;;;;;;;1.00;0.00;;;;;;;;5040774;28;45297;-81
2023/05/11 05:22:24;;;;;;;;;2.50;0.00;;;;;;;;5059017;28;45514;-81
2023/05/11 05:24:49;;;;;;;;;0.00;0.00;;;;;;;;5058838;28;45392;-81
2023/05/11 05:27:14;;;;;;;;;1.75;0.00;;;;;;;;5058264;28;45364;-81
2023/05/11 05:29:39;;;;;;;;;2.00;0.00;;;;;;;;5059171;28;45418;-81
2023/05/11 05:32:04;;;;;;;;;2.67;1.00;;;;;;;;5058837;28;45393;-86
2023/05/11 05:34:30;;;;;;;;;0.00;0.00;;;;;;;;5059003;28;45829;-82
2023/05/11 05:36:55;;;;;;;;;0.00;0.00;;;;;;;;5058554;28;45375;-80
2023/05/11 05:39:20;;;;;;;;;1.00;0.00;;;;;;;;5040601;28;45356;-82
2023/05/11 05:41:45;;;;;;;;;0.00;0.00;;;;;;;;5040134;28;45460;-83
2023/05/11 05:44:10;;;;;;;;;0.33;0.33;;;;;;;;5058209;28;45483;-81
2023/05/11 05:46:36;;;;;;;;;2.00;0.00;;;;;;;;5058475;28;45376;-80
2023/05/11 05:49:01;;;;;;;;;1.00;0.00;;;;;;;;5058399;28;45403;-79
2023/05/11 05:51:26;;;;;;;;;2.00;0.50;;;;;;;;5058628;28;45516;-79
2023/05/11 05:53:52;;;;;;;;;2.33;0.00;;;;;;;;5058569;28;46636;-79
2023/05/11 05:56:17;;;;;;;;;3.00;0.00;;;;;;;;5040199;28;45557;-80
2023/05/11 05:58:42;;;;;;;;;0.67;0.00;;;;;;;;5058547;28;45458;-79
2023/05/11 06:01:07;;;;;;;;;2.33;0.00;;;;;;;;5058665;28;45465;-79
2023/05/11 06:03:32;;;;;;;;;1.00;1.00;;;;;;;;5058481;28;45385;-78
2023/05/11 06:05:57;;;;;;;;;0.33;0.33;;;;;;;;5058353;28;45332;-80
2023/05/11 06:08:23;;;;;;;;;0.00;0.00;;;;;;;;5057986;28;45348;-81
2023/05/11 06:10:48;;;;;;;;;3.00;1.00;;;;;;;;5058003;28;45333;-80
2023/05/11 06:13:13;;;;;;;;;1.33;0.00;;;;;;;;5057374;28;45599;-81
2023/05/11 06:15:38;;;;;;;;;1.00;1.00;;;;;;;;5058311;28;45464;-80
2023/05/11 06:18:04;;;;;;;;;2.00;0.33;;;;;;;;5040218;28;45376;-80
2023/05/11 06:20:30;;;;;;;;;1.00;1.00;;;;;;;;5058074;28;45300;-81
2023/05/11 06:22:55;;;;;;;;;1.00;0.00;;;;;;;;5058047;28;46525;-81
2023/05/11 06:25:20;;;;;;;;;0.33;0.33;;;;;;;;5057712;28;45371;-80
2023/05/11 06:27:46;;;;;;;;;1.00;0.00;;;;;;;;5058253;28;45367;-80
2023/05/11 06:30:11;;;;;;;;;0.00;0.00;;;;;;;;5058198;28;45325;-81
2023/05/11 06:32:36;;;;;;;;;2.50;1.00;;;;;;;;5057736;28;46449;-80
2023/05/11 06:35:01;;;;;;;;;1.00;1.00;;;;;;;;5057942;28;45349;-81
2023/05/11 06:37:30;;;;;;;;;0.00;0.00;;;;;;;;5057830;28;45319;-83
2023/05/11 06:39:55;;;;;;;;;2.75;1.00;;;;;;;;5056801;28;45830;-83
2023/05/11 06:42:22;;;;;;;;;0.00;0.00;;;;;;;;5057644;28;47283;-82
2023/05/11 06:44:47;;;;;;;;;2.00;0.00;;;;;;;;5057134;28;45397;-81
2023/05/11 06:47:12;;;;;;;;;0.75;0.75;;;;;;;;5057372;28;45270;-83
2023/05/11 06:49:38;;;;;;;;;3.75;1.00;;;;;;;;5057700;28;45507;-82
2023/05/11 06:52:03;;;;;;;;;1.00;1.00;;;;;;;;5055776;28;45598;-83
2023/05/11 06:54:28;;;;;;;;;2.33;0.33;;;;;;;;5057207;28;45377;-84
2023/05/11 06:56:54;;;;;;;;;0.75;0.75;;;;;;;;5057364;28;45425;-83
2023/05/11 06:59:19;;;;;;;;;1.50;1.00;;;;;;;;5057879;28;45312;-83
2023/05/11 07:01:45;;;;;;;;;2.25;1.00;;;;;;;;5057278;28;46978;-82
2023/05/11 07:04:10;;;;;;;;;1.25;0.00;;;;;;;;5039198;28;45396;-83
2023/05/11 07:06:35;;;;;;;;;1.00;1.00;;;;;;;;5039235;28;45528;-83
2023/05/11 07:09:02;;;;;;;;;2.00;0.00;;;;;;;;5057129;28;45460;-82
2023/05/11 07:11:27;;;;;;;;;1.75;1.00;;;;;;;;5056579;28;47115;-82
2023/05/11 07:13:53;;;;;;;;;3.00;1.25;;;;;;;;5056625;28;46889;-82
2023/05/11 07:16:18;;;;;;;;;1.75;1.00;;;;;;;;5057596;28;45484;-83
2023/05/11 07:18:43;;;;;;;;;2.67;1.00;;;;;;;;5057383;28;45219;-84
2023/05/11 07:21:08;;;;;;;;;3.00;1.00;;;;;;;;5056053;28;46545;-82
2023/05/11 07:23:33;;;;;;;;;1.00;1.00;;;;;;;;5056409;28;45360;-83
2023/05/11 07:25:59;;;;;;;;;4.00;1.00;;;;;;;;5055941;28;45574;-81
2023/05/11 07:28:24;;;;;;;;;1.00;1.00;;;;;;;;5056502;28;45482;-81
2023/05/11 07:30:49;;;;;;;;;0.00;0.00;;;;;;;;5055304;28;46482;-82
2023/05/11 07:33:15;;;;;;;;;2.75;1.00;;;;;;;;5038494;28;45404;-81
2023/05/11 07:35:40;;;;;;;;;1.00;1.00;;;;;;;;5056610;28;45387;-82
2023/05/11 07:38:08;;;;;;;;;1.67;1.33;;;;;;;;5038377;28;45436;-82
2023/05/11 07:40:33;;;;;;;;;1.25;1.00;;;;;;;;5056829;28;47142;-81
2023/05/11 07:42:59;;;;;;;;;2.50;1.25;;;;;;;;5055314;28;45393;-83
2023/05/11 07:45:24;;;;;;;;;2.00;2.00;;;;;;;;5056189;28;45312;-82
2023/05/11 07:47:49;;;;;;;;;2.00;1.00;;;;;;;;5056629;28;45495;-81
2023/05/11 07:50:15;;;;;;;;;1.00;0.00;;;;;;;;5037533;28;47288;-82
2023/05/11 07:52:40;;;;;;;;;2.00;1.00;;;;;;;;5055564;28;45428;-81
2023/05/11 07:55:05;;;;;;;;;1.00;1.00;;;;;;;;5056587;28;45303;-82
2023/05/11 07:57:30;;;;;;;;;2.00;1.00;;;;;;;;5056257;28;45402;-82
2023/05/11 07:59:56;;;;;;;;;2.00;0.67;;;;;;;;5038061;28;48260;-82
2023/05/11 08:02:21;;;;;;;;;6.00;1.67;;;;;;;;5056270;28;45484;-82
2023/05/11 08:04:46;;;;;;;;;2.33;1.67;;;;;;;;5036900;28;45527;-81
2023/05/11 08:07:11;;;;;;;;;2.33;1.00;;;;;;;;5035912;28;45513;-81
2023/05/11 08:09:36;;;;;;;;;2.00;2.00;;;;;;;;5055614;28;45556;-81
2023/05/11 08:12:02;;;;;;;;;1.00;1.00;;;;;;;;5055658;28;45335;-80
2023/05/11 08:14:28;;;;;;;;;1.50;1.50;;;;;;;;5055808;28;45214;-81
2023/05/11 08:16:53;;;;;;;;;2.00;2.00;;;;;;;;5056089;28;45333;-82
2023/05/11 08:19:18;;;;;;;;;0.00;0.00;;;;;;;;5055469;28;46565;-80
2023/05/11 08:21:45;;;;;;;;;1.00;1.00;;;;;;;;5055631;28;45281;-80
2023/05/11 08:24:10;;;;;;;;;1.00;1.00;;;;;;;;5055852;28;45363;-80
2023/05/11 08:26:35;;;;;;;;;2.00;1.00;;;;;;;;5056158;28;45372;-81
2023/05/11 08:29:00;;;;;;;;;2.67;2.00;;;;;;;;5055813;28;45706;-81
2023/05/11 08:31:26;;;;;;;;;2.00;2.00;;;;;;;;5055659;28;45679;-81
2023/05/11 08:33:51;;;;;;;;;1.33;1.33;;;;;;;;5056045;28;45408;-80
2023/05/11 08:36:16;;;;;;;;;2.00;1.00;;;;;;;;5054946;28;45420;-80
2023/05/11 08:38:41;;;;;;;;;0.00;0.00;;;;;;;;5055436;28;45578;-81
2023/05/11 08:41:06;;;;;;;;;3.33;1.33;;;;;;;;5055251;28;45734;-80
2023/05/11 08:43:33;;;;;;;;;4.00;2.00;;;;;;;;5055736;28;45312;-80
2023/05/11 08:46:02;;;;;;;;;1.50;1.50;;;;;;;;5055044;28;45689;-80
2023/05/11 08:48:29;;;;;;;;;2.00;2.00;;;;;;;;5054801;28;46835;-79
2023/05/11 08:50:55;;;;;;;;;2.75;2.00;;;;;;;;5037341;28;45639;-79
2023/05/11 08:53:21;;;;;;;;;3.00;1.50;;;;;;;;5050496;28;45562;-79
2023/05/11 08:55:46;;;;;;;;;3.25;1.75;;;;;;;;5044379;28;45696;-80
2023/05/11 08:58:13;;;;;;;;;2.00;2.00;;;;;;;;5036054;28;48347;-79
2023/05/11 09:00:39;;;;;;;;;2.75;2.00;;;;;;;;5054151;28;45234;-80
2023/05/11 09:03:04;;;;;;;;;2.00;2.00;;;;;;;;5052475;28;45433;-79
2023/05/11 09:05:31;;;;;;;;;2.00;1.67;;;;;;;;5054343;28;45603;-79
2023/05/11 09:07:59;;;;;;;;;6.50;2.75;;;;;;;;5047703;28;46153;-78
2023/05/11 09:10:24;;;;;;;;;2.00;1.50;;;;;;;;5052155;28;45458;-80
2023/05/11 09:12:49;;;;;;;;;1.33;1.33;;;;;;;;5054621;28;45329;-79
2023/05/11 09:15:14;;;;;;;;;1.00;1.00;;;;;;;;5052894;28;45325;-79
2023/05/11 09:17:39;;;;;;;;;1.33;1.00;;;;;;;;5034675;28;47281;-79
2023/05/11 09:20:06;;;;;;;;;2.00;1.00;;;;;;;;5049724;28;45487;-79
2023/05/11 09:22:42;;;;;;;;;3.00;1.00;;;;;;;;5041513;28;45368;-80
2023/05/11 09:25:09;;;;;;;;;2.00;1.25;;;;;;;;5022994;28;45400;-80
2023/05/11 09:27:40;;;;;;;;;2.75;1.00;;;;;;;;5050001;28;46479;-79
2023/05/11 09:30:15;;;;;;;;;1.75;1.75;;;;;;;;5054452;28;45321;-79
2023/05/11 09:32:57;;;;;;;;;1.00;1.00;;;;;;;;5054485;28;45400;-79
2023/05/11 09:35:23;;;;;;;;;1.75;1.00;;;;;;;;5054702;28;45321;-79
2023/05/11 09:38:08;;;;;;;;;1.25;1.00;;;;;;;;5037400;28;47246;-78
2023/05/11 09:40:42;;;;;;;;;2.00;2.00;;;;;;;;5054589;28;45699;-78
2023/05/11 09:43:16;;;;;;;;;1.75;1.00;;;;;;;;5054409;28;45386;-80
2023/05/11 09:45:43;;;;;;;;;1.00;1.00;;;;;;;;5053139;28;45440;-79
2023/05/11 09:48:20;;;;;;;;;1.25;1.25;;;;;;;;5054977;28;45661;-80
2023/05/11 09:50:46;;;;;;;;;1.25;1.00;;;;;;;;5055847;28;45321;-79
2023/05/11 09:53:11;;;;;;;;;2.25;1.00;;;;;;;;5057911;28;45480;-80
2023/05/11 09:55:37;;;;;;;;;2.00;2.00;;;;;;;;5057890;28;45400;-80
2023/05/11 09:58:03;;;;;;;;;2.00;2.00;;;;;;;;5045626;28;46350;-80
2023/05/11 10:00:28;;;;;;;;;1.00;0.00;;;;;;;;5057750;28;45448;-79
2023/05/11 10:03:04;;;;;;;;;2.67;2.33;;;;;;;;5047627;28;45309;-80
2023/05/11 10:05:35;;;;;;;;;1.75;1.00;;;;;;;;5052318;28;45297;-80
2023/05/11 10:08:02;;;;;;;;;1.75;0.75;;;;;;;;5057334;28;45413;-80
2023/05/11 10:10:28;;;;;;;;;2.50;2.00;;;;;;;;5056470;28;45668;-79
2023/05/11 10:12:57;;;;;;;;;0.00;0.00;;;;;;;;5051799;28;45826;-80
2023/05/11 10:15:27;;;;;;;;;1.00;1.00;;;;;;;;5038778;28;45277;-80
2023/05/11 10:17:55;;;;;;;;;2.75;2.00;;;;;;;;5036984;28;46152;-80
2023/05/11 10:20:21;;;;;;;;;2.00;1.25;;;;;;;;5051012;28;45444;-80
2023/05/11 10:22:49;;;;;;;;;3.25;1.00;;;;;;;;5048010;28;45350;-80
2023/05/11 10:25:15;;;;;;;;;2.50;2.00;;;;;;;;5031755;28;45537;-80
2023/05/11 10:27:41;;;;;;;;;1.00;1.00;;;;;;;;5052732;28;45660;-78
2023/05/11 10:30:09;;;;;;;;;3.75;1.00;;;;;;;;5056594;28;46042;-78
2023/05/11 10:32:38;;;;;;;;;1.00;1.00;;;;;;;;5055771;28;45320;-80
2023/05/11 10:35:05;;;;;;;;;1.50;1.00;;;;;;;;5048745;28;45551;-79
2023/05/11 10:37:30;;;;;;;;;3.00;1.00;;;;;;;;5039555;28;45507;-80
2023/05/11 10:39:56;;;;;;;;;2.50;0.00;;;;;;;;5024322;28;45479;-79
2023/05/11 10:42:32;;;;;;;;;2.25;1.00;;;;;;;;5056368;28;45398;-79
2023/05/11 10:45:09;;;;;;;;;2.00;0.75;;;;;;;;5052685;28;45479;-79
2023/05/11 10:47:46;;;;;;;;;1.75;0.50;;;;;;;;5052149;28;46403;-79
2023/05/11 10:50:24;;;;;;;;;1.00;1.00;;;;;;;;5056668;28;45828;-80
2023/05/11 10:52:55;;;;;;;;;0.00;0.00;;;;;;;;5055270;28;45489;-79
2023/05/11 10:55:35;;;;;;;;;2.00;1.50;;;;;;;;5048912;28;45555;-79
2023/05/11 10:58:09;;;;;;;;;0.75;0.25;;;;;;;;5055485;28;45367;-80
2023/05/11 11:00:49;;;;;;;;;0.25;0.25;;;;;;;;5056151;28;45765;-80
2023/05/11 11:03:14;;;;;;;;;3.75;2.00;;;;;;;;5056752;28;45445;-79
2023/05/11 11:05:42;;;;;;;;;2.33;1.00;;;;;;;;5056584;28;45435;-79
2023/05/11 11:08:08;;;;;;;;;2.75;1.00;;;;;;;;5043214;28;46294;-78
2023/05/11 11:10:34;;;;;;;;;2.25;1.50;;;;;;;;5033515;28;45892;-80
2023/05/11 11:13:07;;;;;;;;;1.00;1.00;;;;;;;;5056660;28;45483;-79
2023/05/11 11:15:51;;;;;;;;;3.50;0.00;;;;;;;;5056276;28;45403;-81
2023/05/11 11:18:23;;;;;;;;;1.00;1.00;;;;;;;;5038799;28;48267;-80
2023/05/11 11:20:50;;;;;;;;;1.00;1.00;;;;;;;;5056435;28;45620;-80
2023/05/11 11:23:33;;;;;;;;;2.00;1.00;;;;;;;;5056417;28;45391;-79
2023/05/11 11:25:59;;;;;;;;;1.00;1.00;;;;;;;;5054286;28;45340;-80
2023/05/11 11:28:24;;;;;;;;;3.50;1.00;;;;;;;;5055696;28;46439;-81
2023/05/11 11:31:08;;;;;;;;;1.33;0.67;;;;;;;;5056432;28;45359;-80
2023/05/11 11:33:34;;;;;;;;;0.50;0.50;;;;;;;;5033396;28;45380;-80
2023/05/11 11:35:59;;;;;;;;;1.00;0.67;;;;;;;;5055862;28;45629;-80
2023/05/11 11:38:24;;;;;;;;;2.00;0.33;;;;;;;;5056085;28;46082;-80
2023/05/11 11:40:51;;;;;;;;;0.00;0.00;;;;;;;;5056016;28;45366;-80
2023/05/11 11:43:18;;;;;;;;;2.00;1.75;;;;;;;;5049358;28;45491;-80
2023/05/11 11:45:53;;;;;;;;;3.00;1.00;;;;;;;;5052243;28;45364;-80
2023/05/11 11:48:27;;;;;;;;;1.00;1.00;;;;;;;;5037888;28;48187;-80
2023/05/11 11:51:00;;;;;;;;;0.75;0.75;;;;;;;;5056063;28;45413;-80
2023/05/11 11:53:34;;;;;;;;;1.25;1.00;;;;;;;;5038010;28;45358;-80
2023/05/11 11:55:59;;;;;;;;;2.25;1.00;;;;;;;;5055516;28;45365;-80
2023/05/11 11:58:40;;;;;;;;;0.67;0.67;;;;;;;;5055487;28;46714;-80
2023/05/11 12:01:09;;;;;;;;;0.75;0.75;;;;;;;;5054023;28;45547;-80
2023/05/11 12:03:35;;;;;;;;;2.00;0.00;;;;;;;;5056001;28;45368;-80
2023/05/11 12:06:00;;;;;;;;;2.00;0.75;;;;;;;;5055364;28;45360;-80
2023/05/11 12:08:27;;;;;;;;;0.00;0.00;;;;;;;;5055457;28;45586;-80
2023/05/11 12:10:53;;;;;;;;;0.25;0.25;;;;;;;;5049557;28;45428;-80
2023/05/11 12:13:19;;;;;;;;;2.25;1.00;;;;;;;;5049491;28;45553;-80
2023/05/11 12:15:45;;;;;;;;;1.00;1.00;;;;;;;;5055588;28;45499;-80
2023/05/11 12:18:28;;;;;;;;;0.00;0.00;;;;;;;;5044991;28;47378;-80
2023/05/11 12:20:53;;;;;;;;;0.25;0.00;;;;;;;;5055641;28;45676;-80
2023/05/11 12:23:18;;;;;;;;;2.33;0.00;;;;;;;;5055565;28;45432;-80
2023/05/11 12:25:43;;;;;;;;;1.00;0.00;;;;;;;;5055399;28;45633;-80
2023/05/11 12:28:11;;;;;;;;;2.00;0.00;;;;;;;;5054717;28;46528;-80
2023/05/11 12:30:36;;;;;;;;;2.25;0.75;;;;;;;;5055248;28;45582;-80
2023/05/11 12:33:03;;;;;;;;;0.00;0.00;;;;;;;;5048690;28;45489;-80
2023/05/11 12:35:29;;;;;;;;;0.00;0.00;;;;;;;;5053699;28;45459;-80
2023/05/11 12:37:55;;;;;;;;;0.00;0.00;;;;;;;;5054924;28;46405;-80
2023/05/11 12:40:20;;;;;;;;;0.75;0.50;;;;;;;;5054990;28;45341;-80
2023/05/11 12:42:52;;;;;;;;;2.00;1.00;;;;;;;;5055048;28;45388;-81
2023/05/11 12:45:19;;;;;;;;;0.00;0.00;;;;;;;;5036989;28;45445;-80
2023/05/11 12:47:45;;;;;;;;;0.00;0.00;;;;;;;;5054906;28;47230;-80
2023/05/11 12:50:10;;;;;;;;;0.75;0.75;;;;;;;;5054907;28;45667;-80
2023/05/11 12:52:35;;;;;;;;;1.00;0.00;;;;;;;;5045343;28;45401;-80
2023/05/11 12:55:01;;;;;;;;;2.00;0.00;;;;;;;;5054857;28;45562;-80
2023/05/11 12:57:27;;;;;;;;;2.00;0.75;;;;;;;;5054843;28;45336;-80
2023/05/11 13:00:11;;;;;;;;;0.50;0.50;;;;;;;;5054925;28;45771;-80
2023/05/11 13:02:53;;;;;;;;;0.75;0.75;;;;;;;;5055126;28;45382;-80
2023/05/11 13:05:22;;;;;;;;;1.50;0.00;;;;;;;;5055064;28;45379;-80
2023/05/11 13:07:55;;;;;;;;;1.75;0.00;;;;;;;;5052846;28;45548;-80
2023/05/11 13:10:22;;;;;;;;;0.00;0.00;;;;;;;;5053222;28;45226;-80
2023/05/11 13:12:49;;;;;;;;;0.00;0.00;;;;;;;;5044886;28;45242;-80
2023/05/11 13:15:14;;;;;;;;;1.00;0.00;;;;;;;;5036785;28;45661;-80
2023/05/11 13:17:41;;;;;;;;;0.50;0.50;;;;;;;;5054615;28;46986;-80
2023/05/11 13:20:16;;;;;;;;;0.00;0.00;;;;;;;;5054296;28;46068;-80
2023/05/11 13:22:42;;;;;;;;;0.00;0.00;;;;;;;;5056645;28;45421;-79
2023/05/11 13:25:08;;;;;;;;;0.25;0.25;;;;;;;;5052931;28;45491;-80
2023/05/11 13:27:33;;;;;;;;;1.00;0.00;;;;;;;;5053218;28;46674;-80
2023/05/11 13:29:58;;;;;;;;;0.00;0.00;;;;;;;;5057700;28;45432;-80
2023/05/11 13:32:23;;;;;;;;;0.00;0.00;;;;;;;;5058183;28;45356;-80
2023/05/11 13:34:49;;;;;;;;;0.67;0.00;;;;;;;;5040106;28;45358;-80
2023/05/11 13:37:14;;;;;;;;;1.00;0.00;;;;;;;;5057776;28;45401;-80
2023/05/11 13:39:40;;;;;;;;;0.00;0.00;;;;;;;;5057654;28;45401;-80
2023/05/11 13:42:05;;;;;;;;;1.00;1.00;;;;;;;;5037867;28;45337;-79
2023/05/11 13:44:30;;;;;;;;;0.00;0.00;;;;;;;;5039474;28;45562;-80
2023/05/11 13:46:55;;;;;;;;;0.00;0.00;;;;;;;;5057603;28;47101;-80
2023/05/11 13:49:21;;;;;;;;;1.33;0.00;;;;;;;;5039955;28;45672;-80
2023/05/11 13:51:46;;;;;;;;;1.00;0.00;;;;;;;;5057728;28;45641;-80
2023/05/11 13:54:12;;;;;;;;;0.00;0.00;;;;;;;;5057325;28;45401;-80
2023/05/11 13:56:37;;;;;;;;;0.25;0.25;;;;;;;;5057581;28;46813;-80
2023/05/11 13:59:02;;;;;;;;;0.00;0.00;;;;;;;;5053494;28;45686;-80
2023/05/11 14:01:27;;;;;;;;;0.00;0.00;;;;;;;;5052283;28;45471;-79
2023/05/11 14:03:53;;;;;;;;;1.00;1.00;;;;;;;;5057570;28;45218;-80
2023/05/11 14:06:20;;;;;;;;;0.00;0.00;;;;;;;;5057293;28;46326;-80
2023/05/11 14:08:45;;;;;;;;;1.25;0.00;;;;;;;;5057197;28;45732;-81
2023/05/11 14:11:10;;;;;;;;;1.00;0.67;;;;;;;;5049552;28;45443;-81
2023/05/11 14:13:35;;;;;;;;;1.00;0.00;;;;;;;;5054288;28;45384;-79
2023/05/11 14:16:01;;;;;;;;;1.00;0.00;;;;;;;;5055580;28;47413;-81
2023/05/11 14:18:26;;;;;;;;;2.00;0.00;;;;;;;;5057361;28;45476;-79
2023/05/11 14:20:52;;;;;;;;;0.00;0.00;;;;;;;;5057816;28;45436;-80
2023/05/11 14:23:17;;;;;;;;;0.50;0.50;;;;;;;;5057065;28;45270;-80
2023/05/11 14:25:42;;;;;;;;;1.00;1.00;;;;;;;;5057219;28;45400;-80
2023/05/11 14:28:07;;;;;;;;;0.67;0.00;;;;;;;;5056792;28;45356;-79
2023/05/11 14:30:33;;;;;;;;;1.33;0.00;;;;;;;;5057530;28;45387;-80
2023/05/11 14:32:58;;;;;;;;;0.00;0.00;;;;;;;;5057056;28;45426;-79
2023/05/11 14:35:23;;;;;;;;;0.00;0.00;;;;;;;;5056293;28;45434;-79
2023/05/11 14:37:48;;;;;;;;;1.00;0.00;;;;;;;;5056567;28;45380;-79
2023/05/11 14:40:13;;;;;;;;;1.00;0.00;;;;;;;;5057098;28;45542;-79